Time;durP1;ratioP1;P1;durP2;ratioP2;P2;SDS_P1;SDS_P2;PMS_P1;PMS_P2;Temp;Humidity;BMP_temperature;BMP_pressure;BME280_temperature;BME280_humidity;BME280_pressure;Samples;Min_cycle;Max_cycle;Signal;HPM_P1;HPM_P2
2022/07/01 00:02:22;;;;;;;11.95;8.20;;;;;;;;;;5123126;27;20046;-80
2022/07/01 00:04:48;;;;;;;9.93;8.93;;;;;;;;;;5140438;27;20114;-79
2022/07/01 00:07:43;;;;;;;10.73;8.45;;;;;;;;;;5133845;27;20083;-80
2022/07/01 00:10:08;;;;;;;12.70;7.50;;;;;;;;;;5122882;27;20068;-80
2022/07/01 00:12:34;;;;;;;11.48;9.15;;;;;;;;;;5139384;27;20066;-80
2022/07/01 00:14:59;;;;;;;10.65;8.48;;;;;;;;;;5113765;28;20035;-80
2022/07/01 00:17:25;;;;;;;12.88;8.18;;;;;;;;;;5121337;28;20035;-81
2022/07/01 00:19:51;;;;;;;9.73;8.32;;;;;;;;;;5121023;28;20032;-81
2022/07/01 00:22:16;;;;;;;16.85;8.05;;;;;;;;;;5121800;28;20069;-81
2022/07/01 00:24:45;;;;;;;9.85;7.78;;;;;;;;;;5119439;28;20043;-81
2022/07/01 00:27:10;;;;;;;12.27;7.68;;;;;;;;;;5104500;28;20031;-80
2022/07/01 00:29:36;;;;;;;11.77;7.70;;;;;;;;;;5103812;28;20034;-80
2022/07/01 00:32:01;;;;;;;12.48;8.30;;;;;;;;;;5120827;28;20400;-80
2022/07/01 00:34:29;;;;;;;10.07;8.18;;;;;;;;;;5101131;28;20045;-79
2022/07/01 00:36:55;;;;;;;7.75;6.65;;;;;;;;;;5101303;28;20039;-79
2022/07/01 00:39:24;;;;;;;7.40;6.63;;;;;;;;;;5118252;28;20027;-80
2022/07/01 00:41:49;;;;;;;8.70;7.65;;;;;;;;;;5117969;28;20028;-80
2022/07/01 00:44:18;;;;;;;7.30;6.40;;;;;;;;;;5118550;28;20045;-80
2022/07/01 00:46:45;;;;;;;8.32;6.05;;;;;;;;;;5100993;28;20043;-79
2022/07/01 00:49:10;;;;;;;12.77;7.05;;;;;;;;;;5100458;28;20054;-80
2022/07/01 00:51:36;;;;;;;9.15;6.47;;;;;;;;;;5117960;28;20416;-79
2022/07/01 00:54:02;;;;;;;8.90;6.47;;;;;;;;;;5119374;28;20122;-80
2022/07/01 00:56:27;;;;;;;11.73;6.90;;;;;;;;;;5117770;28;20043;-80
2022/07/01 00:58:55;;;;;;;13.30;7.05;;;;;;;;;;5118232;28;20039;-79
2022/07/01 01:01:22;;;;;;;9.25;5.18;;;;;;;;;;5100778;28;20039;-79
2022/07/01 01:03:49;;;;;;;9.57;6.35;;;;;;;;;;5117992;28;20035;-79
2022/07/01 01:06:16;;;;;;;6.28;5.22;;;;;;;;;;5100365;28;20035;-80
2022/07/01 01:08:42;;;;;;;6.07;5.03;;;;;;;;;;5117009;28;20036;-79
2022/07/01 01:11:09;;;;;;;7.57;5.00;;;;;;;;;;5117765;28;20040;-80
2022/07/01 01:13:35;;;;;;;5.38;4.07;;;;;;;;;;5136741;27;20030;-79
2022/07/01 01:16:01;;;;;;;7.15;4.78;;;;;;;;;;5141765;27;20062;-79
2022/07/01 01:18:27;;;;;;;6.60;4.47;;;;;;;;;;5158710;27;20030;-79
2022/07/01 01:20:54;;;;;;;6.75;4.00;;;;;;;;;;5158226;27;20062;-79
2022/07/01 01:23:19;;;;;;;4.63;3.63;;;;;;;;;;5141458;27;20054;-79
2022/07/01 01:25:47;;;;;;;5.18;3.03;;;;;;;;;;5140370;27;20054;-79
2022/07/01 01:28:14;;;;;;;4.47;3.58;;;;;;;;;;5158315;27;20031;-79
2022/07/01 01:30:41;;;;;;;3.10;2.70;;;;;;;;;;5158375;27;20038;-79
2022/07/01 01:33:11;;;;;;;5.57;2.22;;;;;;;;;;5140475;27;20038;-80
2022/07/01 01:35:37;;;;;;;3.20;2.25;;;;;;;;;;5141271;27;20384;-79
2022/07/01 01:38:05;;;;;;;2.63;1.95;;;;;;;;;;5158087;27;20042;-80
2022/07/01 01:40:30;;;;;;;2.67;1.77;;;;;;;;;;5158612;27;20022;-79
2022/07/01 01:42:56;;;;;;;4.72;2.22;;;;;;;;;;5137628;27;20499;-79
2022/07/01 01:45:23;;;;;;;8.50;2.45;;;;;;;;;;5137412;27;20070;-79
2022/07/01 01:47:48;;;;;;;6.47;2.30;;;;;;;;;;5137348;27;20038;-79
2022/07/01 01:50:15;;;;;;;4.60;2.50;;;;;;;;;;5137542;27;20031;-79
2022/07/01 01:52:43;;;;;;;3.80;2.53;;;;;;;;;;5119779;27;20027;-79
2022/07/01 01:55:10;;;;;;;3.53;2.35;;;;;;;;;;5137265;27;20035;-79
2022/07/01 01:57:37;;;;;;;3.75;2.33;;;;;;;;;;5136139;27;20114;-79
2022/07/01 02:00:07;;;;;;;4.80;2.10;;;;;;;;;;5121367;28;20099;-80
2022/07/01 02:02:38;;;;;;;3.75;2.45;;;;;;;;;;5140440;27;20042;-79
2022/07/01 02:05:10;;;;;;;6.57;2.40;;;;;;;;;;5138910;27;20031;-79
2022/07/01 02:07:35;;;;;;;4.80;3.10;;;;;;;;;;5139227;27;20042;-80
2022/07/01 02:10:01;;;;;;;4.22;3.28;;;;;;;;;;5121664;28;20039;-79
2022/07/01 02:12:29;;;;;;;5.00;3.60;;;;;;;;;;5127212;27;20179;-80
2022/07/01 02:14:54;;;;;;;5.30;3.90;;;;;;;;;;5157912;27;20095;-78
2022/07/01 02:17:20;;;;;;;5.38;4.20;;;;;;;;;;5140178;27;20031;-79
2022/07/01 02:19:48;;;;;;;8.90;4.85;;;;;;;;;;5139081;27;20027;-79
2022/07/01 02:22:13;;;;;;;11.02;6.78;;;;;;;;;;5155969;27;20484;-78
2022/07/01 02:24:39;;;;;;;9.18;7.35;;;;;;;;;;5157910;27;20109;-79
2022/07/01 02:27:04;;;;;;;8.68;7.15;;;;;;;;;;5141341;27;20031;-79
2022/07/01 02:29:29;;;;;;;10.73;7.85;;;;;;;;;;5140263;27;20035;-79
2022/07/01 02:31:55;;;;;;;10.27;6.70;;;;;;;;;;5159504;27;20030;-80
2022/07/01 02:34:20;;;;;;;9.07;6.57;;;;;;;;;;5160085;27;20050;-80
2022/07/01 02:36:46;;;;;;;10.85;6.50;;;;;;;;;;5141066;27;20059;-80
2022/07/01 02:39:11;;;;;;;9.30;5.65;;;;;;;;;;5116824;28;20054;-80
2022/07/01 02:42:22;;;;;;;6.85;4.85;;;;;;;;;;5099808;28;20043;-80
2022/07/01 02:44:24;;;;;;;7.75;5.10;;;;;;;;;;5116273;28;20031;-80
2022/07/01 02:46:51;;;;;;;9.40;5.28;;;;;;;;;;5116838;28;20036;-81
2022/07/01 02:49:17;;;;;;;7.78;4.55;;;;;;;;;;5099120;28;20465;-79
2022/07/01 02:51:43;;;;;;;7.35;4.10;;;;;;;;;;5098405;28;20148;-80
2022/07/01 02:54:08;;;;;;;6.78;4.35;;;;;;;;;;5113647;28;20128;-79
2022/07/01 02:56:33;;;;;;;5.00;3.83;;;;;;;;;;5096872;28;20032;-78
2022/07/01 02:58:59;;;;;;;5.53;4.00;;;;;;;;;;5114132;28;20039;-78
2022/07/01 03:01:26;;;;;;;6.68;3.75;;;;;;;;;;5096890;28;20045;-78
2022/07/01 03:03:56;;;;;;;3.70;2.92;;;;;;;;;;5096843;28;20130;-78
2022/07/01 03:06:26;;;;;;;6.32;2.95;;;;;;;;;;5099570;28;20039;-78
2022/07/01 03:09:00;;;;;;;11.13;3.80;;;;;;;;;;5100715;28;20069;-78
2022/07/01 03:11:25;;;;;;;4.10;2.95;;;;;;;;;;5117563;28;20039;-78
2022/07/01 03:13:51;;;;;;;3.80;3.05;;;;;;;;;;5111731;27;20130;-78
2022/07/01 03:16:17;;;;;;;4.80;3.47;;;;;;;;;;5120790;27;20045;-78
2022/07/01 03:18:46;;;;;;;4.82;3.95;;;;;;;;;;5137925;27;20035;-78
2022/07/01 03:21:16;;;;;;;5.75;3.72;;;;;;;;;;5139099;27;20027;-78
2022/07/01 03:23:43;;;;;;;5.25;3.30;;;;;;;;;;5137377;27;20091;-78
2022/07/01 03:26:09;;;;;;;5.15;3.13;;;;;;;;;;5137417;27;20031;-78
2022/07/01 03:28:37;;;;;;;4.05;3.40;;;;;;;;;;5137530;27;20039;-78
2022/07/01 03:31:05;;;;;;;5.05;3.65;;;;;;;;;;5137198;27;20408;-78
2022/07/01 03:33:31;;;;;;;5.57;4.30;;;;;;;;;;5120237;27;20487;-78
2022/07/01 03:35:57;;;;;;;6.80;3.63;;;;;;;;;;5136992;27;20056;-78
2022/07/01 03:38:24;;;;;;;5.30;3.70;;;;;;;;;;5138352;27;20401;-78
2022/07/01 03:40:49;;;;;;;4.78;3.10;;;;;;;;;;5137020;27;20027;-78
2022/07/01 03:43:16;;;;;;;6.20;4.10;;;;;;;;;;5119974;27;20045;-78
2022/07/01 03:45:41;;;;;;;4.57;3.70;;;;;;;;;;5119698;27;20035;-78
2022/07/01 03:48:07;;;;;;;4.97;3.30;;;;;;;;;;5119639;27;20087;-78
2022/07/01 03:50:32;;;;;;;5.43;4.07;;;;;;;;;;5136825;27;20039;-78
2022/07/01 03:55:42;;;;;;;4.13;3.30;;;;;;;;;;5136429;27;20054;-78
2022/07/01 03:58:08;;;;;;;3.42;2.97;;;;;;;;;;5136428;27;20042;-78
2022/07/01 04:00:35;;;;;;;3.75;2.97;;;;;;;;;;5136160;27;20027;-78
2022/07/01 04:03:03;;;;;;;3.63;3.00;;;;;;;;;;5119571;27;20088;-78
2022/07/01 04:05:29;;;;;;;4.47;3.35;;;;;;;;;;5127229;27;20031;-78
2022/07/01 04:07:56;;;;;;;4.68;3.58;;;;;;;;;;5098907;28;20024;-78
2022/07/01 04:10:22;;;;;;;8.77;3.58;;;;;;;;;;5116232;28;20031;-78
2022/07/01 04:12:48;;;;;;;5.28;3.25;;;;;;;;;;5098673;28;20036;-78
2022/07/01 04:15:14;;;;;;;4.65;3.08;;;;;;;;;;5117727;28;20044;-78
2022/07/01 04:17:41;;;;;;;4.20;3.17;;;;;;;;;;5115784;28;20111;-78
2022/07/01 04:20:08;;;;;;;4.53;4.13;;;;;;;;;;5099127;28;20035;-78
2022/07/01 04:22:35;;;;;;;5.45;4.28;;;;;;;;;;5116309;28;20143;-78
2022/07/01 04:25:03;;;;;;;5.25;3.58;;;;;;;;;;5116367;28;20032;-78
2022/07/01 04:27:32;;;;;;;4.13;2.95;;;;;;;;;;5116160;28;20035;-78
2022/07/01 04:30:02;;;;;;;4.88;4.15;;;;;;;;;;5099096;28;20039;-78
2022/07/01 04:32:28;;;;;;;4.30;3.85;;;;;;;;;;5098685;28;20035;-78
2022/07/01 04:34:53;;;;;;;4.60;3.72;;;;;;;;;;5099314;28;20046;-79
2022/07/01 04:37:19;;;;;;;5.13;4.50;;;;;;;;;;5116393;28;20047;-78
2022/07/01 04:39:45;;;;;;;6.82;4.25;;;;;;;;;;5116108;28;20031;-83
2022/07/01 04:42:14;;;;;;;5.28;3.90;;;;;;;;;;5124730;27;20034;-84
2022/07/01 04:44:43;;;;;;;5.60;4.30;;;;;;;;;;5141006;27;20032;-84
2022/07/01 04:47:10;;;;;;;4.80;4.03;;;;;;;;;;5142963;27;20035;-83
2022/07/01 04:49:36;;;;;;;4.68;4.20;;;;;;;;;;5129967;27;20063;-83
2022/07/01 04:52:02;;;;;;;7.78;5.00;;;;;;;;;;5142568;27;20035;-82
2022/07/01 04:54:28;;;;;;;7.18;4.57;;;;;;;;;;5127254;27;20035;-82
2022/07/01 04:56:55;;;;;;;5.80;4.85;;;;;;;;;;5125251;27;20044;-83
2022/07/01 04:59:21;;;;;;;6.03;4.68;;;;;;;;;;5121594;27;20023;-83
2022/07/01 05:01:50;;;;;;;6.50;5.63;;;;;;;;;;5138892;27;20115;-83
2022/07/01 05:04:17;;;;;;;7.50;5.82;;;;;;;;;;5120807;27;20031;-83
2022/07/01 05:06:43;;;;;;;8.05;5.50;;;;;;;;;;5120643;27;20015;-82
2022/07/01 05:09:09;;;;;;;8.85;6.95;;;;;;;;;;5140371;27;20027;-82
2022/07/01 05:11:34;;;;;;;8.60;6.68;;;;;;;;;;5140899;27;20464;-82
2022/07/01 05:14:03;;;;;;;6.57;5.60;;;;;;;;;;5102160;28;20023;-83
2022/07/01 05:16:28;;;;;;;8.48;6.53;;;;;;;;;;5103154;28;20430;-82
2022/07/01 05:21:56;;;;;;;8.27;7.07;;;;;;;;;;5119664;28;20036;-82
2022/07/01 05:24:22;;;;;;;10.65;6.82;;;;;;;;;;5119485;28;20114;-83
2022/07/01 05:26:48;;;;;;;7.93;6.65;;;;;;;;;;5100979;28;20113;-82
2022/07/01 05:29:15;;;;;;;7.88;6.82;;;;;;;;;;5102055;28;20035;-82
2022/07/01 05:31:41;;;;;;;7.97;7.05;;;;;;;;;;5102759;28;20028;-82
2022/07/01 05:34:07;;;;;;;10.13;6.95;;;;;;;;;;5118476;28;20473;-83
2022/07/01 05:36:33;;;;;;;8.65;7.60;;;;;;;;;;5119348;28;20031;-83
2022/07/01 05:38:59;;;;;;;11.63;7.57;;;;;;;;;;5120577;27;20476;-83
2022/07/01 05:41:26;;;;;;;8.68;7.75;;;;;;;;;;5143244;27;20022;-83
2022/07/01 05:43:51;;;;;;;9.90;7.82;;;;;;;;;;5160415;27;20391;-84
2022/07/01 05:46:19;;;;;;;8.77;7.20;;;;;;;;;;5142970;27;20034;-83
2022/07/01 05:48:44;;;;;;;12.85;7.68;;;;;;;;;;5158538;27;20050;-81
2022/07/01 05:51:11;;;;;;;10.10;7.55;;;;;;;;;;5141628;27;20026;-81
2022/07/01 05:53:36;;;;;;;12.93;8.65;;;;;;;;;;5162971;27;20070;-81
2022/07/01 05:56:02;;;;;;;10.77;8.48;;;;;;;;;;5162446;27;20034;-81
2022/07/01 05:58:28;;;;;;;8.88;7.55;;;;;;;;;;5143246;27;20034;-81
2022/07/01 06:00:54;;;;;;;10.82;9.00;;;;;;;;;;5142887;27;20031;-81
2022/07/01 06:03:20;;;;;;;12.18;9.85;;;;;;;;;;5142731;27;20091;-81
2022/07/01 06:05:46;;;;;;;11.77;9.63;;;;;;;;;;5160537;27;20026;-81
2022/07/01 06:08:11;;;;;;;11.50;8.70;;;;;;;;;;5160018;27;20030;-81
2022/07/01 06:10:37;;;;;;;9.80;8.77;;;;;;;;;;5159943;27;20045;-81
2022/07/01 06:13:05;;;;;;;11.55;9.60;;;;;;;;;;5142821;27;20031;-82
2022/07/01 06:15:31;;;;;;;12.52;9.63;;;;;;;;;;5142809;27;20441;-82
2022/07/01 06:17:57;;;;;;;11.30;10.10;;;;;;;;;;5143059;27;20039;-82
2022/07/01 06:20:23;;;;;;;11.25;9.98;;;;;;;;;;5142869;27;20031;-82
2022/07/01 06:22:51;;;;;;;12.48;10.50;;;;;;;;;;5142273;27;20083;-83
2022/07/01 06:25:16;;;;;;;11.60;10.38;;;;;;;;;;5142400;27;20066;-83
2022/07/01 06:27:44;;;;;;;12.90;11.50;;;;;;;;;;5141775;27;20038;-83
2022/07/01 06:30:10;;;;;;;12.38;11.05;;;;;;;;;;5159304;27;20027;-83
2022/07/01 06:32:36;;;;;;;10.93;9.57;;;;;;;;;;5141734;27;20418;-83
2022/07/01 06:35:02;;;;;;;14.82;11.07;;;;;;;;;;5133863;28;20051;-83
2022/07/01 06:37:31;;;;;;;12.15;10.23;;;;;;;;;;5121346;27;20088;-83
2022/07/01 06:39:56;;;;;;;11.85;10.55;;;;;;;;;;5122108;27;20035;-83
2022/07/01 06:42:25;;;;;;;11.02;9.95;;;;;;;;;;5143691;27;20037;-83
2022/07/01 06:44:50;;;;;;;13.77;10.27;;;;;;;;;;5125891;27;20095;-83
2022/07/01 06:47:16;;;;;;;15.65;11.35;;;;;;;;;;5125578;27;20062;-83
2022/07/01 06:49:41;;;;;;;15.60;10.80;;;;;;;;;;5125928;27;20031;-83
2022/07/01 06:52:07;;;;;;;12.70;10.77;;;;;;;;;;5122925;27;20027;-84
2022/07/01 06:54:37;;;;;;;14.52;11.57;;;;;;;;;;5124718;27;20035;-82
2022/07/01 06:57:04;;;;;;;15.43;12.02;;;;;;;;;;5142183;27;20031;-82
2022/07/01 06:59:31;;;;;;;13.95;12.23;;;;;;;;;;5124487;27;20027;-82
2022/07/01 07:01:57;;;;;;;13.63;12.18;;;;;;;;;;5130858;27;20031;-82
2022/07/01 07:04:23;;;;;;;17.13;15.27;;;;;;;;;;5126152;27;20057;-81
2022/07/01 07:06:48;;;;;;;54.63;38.53;;;;;;;;;;5111324;28;20035;-81
2022/07/01 07:09:14;;;;;;;22.27;14.32;;;;;;;;;;5109541;28;20399;-81
2022/07/01 07:11:39;;;;;;;13.90;12.50;;;;;;;;;;5129878;28;20032;-81
2022/07/01 07:14:04;;;;;;;16.35;13.23;;;;;;;;;;5111459;28;20036;-81
2022/07/01 07:16:30;;;;;;;13.25;11.30;;;;;;;;;;5112971;28;20061;-81
2022/07/01 07:18:55;;;;;;;15.52;13.15;;;;;;;;;;5130008;28;20035;-81
2022/07/01 07:21:27;;;;;;;13.48;11.80;;;;;;;;;;5112514;28;20043;-81
2022/07/01 07:23:58;;;;;;;20.48;13.18;;;;;;;;;;5128765;28;20053;-81
2022/07/01 07:26:23;;;;;;;14.82;11.98;;;;;;;;;;5111047;28;20032;-82
2022/07/01 07:28:50;;;;;;;14.40;11.63;;;;;;;;;;5110748;28;20077;-81
2022/07/01 07:31:20;;;;;;;16.05;12.65;;;;;;;;;;5110348;28;20099;-82
2022/07/01 07:33:46;;;;;;;12.80;11.30;;;;;;;;;;5110780;28;20039;-82
2022/07/01 07:36:12;;;;;;;14.43;12.23;;;;;;;;;;5128740;27;20035;-81
2022/07/01 07:38:38;;;;;;;20.27;12.90;;;;;;;;;;5130606;27;20066;-81
2022/07/01 07:41:04;;;;;;;15.80;12.30;;;;;;;;;;5129322;27;20031;-81
2022/07/01 07:43:29;;;;;;;13.80;12.27;;;;;;;;;;5122664;27;20133;-81
2022/07/01 07:45:55;;;;;;;13.90;11.95;;;;;;;;;;5142835;27;20146;-80
2022/07/01 07:48:20;;;;;;;15.15;11.93;;;;;;;;;;5125110;27;20051;-79
2022/07/01 07:50:54;;;;;;;14.50;12.05;;;;;;;;;;5123900;27;20453;-80
2022/07/01 07:53:24;;;;;;;14.85;11.93;;;;;;;;;;5139685;27;20051;-80
2022/07/01 07:55:52;;;;;;;11.88;10.38;;;;;;;;;;5123221;27;20038;-83
2022/07/01 07:58:18;;;;;;;12.45;10.65;;;;;;;;;;5124638;27;20039;-83
2022/07/01 08:00:44;;;;;;;14.45;10.88;;;;;;;;;;5123360;27;20074;-80
2022/07/01 08:03:09;;;;;;;12.52;9.68;;;;;;;;;;5122921;27;20035;-82
2022/07/01 08:05:35;;;;;;;11.70;8.90;;;;;;;;;;5127129;27;20032;-81
2022/07/01 08:08:00;;;;;;;10.15;8.82;;;;;;;;;;5122463;28;20046;-82
2022/07/01 08:10:26;;;;;;;10.30;8.55;;;;;;;;;;5104941;28;20039;-79
2022/07/01 08:12:51;;;;;;;8.77;7.32;;;;;;;;;;5104637;28;20028;-79
2022/07/01 08:15:17;;;;;;;8.10;6.93;;;;;;;;;;5120440;28;20050;-83
2022/07/01 08:17:42;;;;;;;8.68;7.03;;;;;;;;;;5107980;28;20035;-82
2022/07/01 08:20:08;;;;;;;9.10;6.15;;;;;;;;;;5125872;28;20049;-82
2022/07/01 08:22:35;;;;;;;9.13;7.55;;;;;;;;;;5104180;28;20433;-82
2022/07/01 08:25:03;;;;;;;8.30;6.55;;;;;;;;;;5118871;28;20015;-84
2022/07/01 08:27:36;;;;;;;8.30;5.88;;;;;;;;;;5103635;28;20040;-81
2022/07/01 08:30:02;;;;;;;6.97;6.28;;;;;;;;;;5106061;28;20040;-82
2022/07/01 08:32:28;;;;;;;11.80;6.28;;;;;;;;;;5103562;28;20057;-81
2022/07/01 08:34:55;;;;;;;6.60;5.80;;;;;;;;;;5101850;28;20110;-79
2022/07/01 08:37:21;;;;;;;7.25;6.35;;;;;;;;;;5117632;28;20132;-81
2022/07/01 08:39:48;;;;;;;11.55;7.05;;;;;;;;;;5103276;28;20049;-84
2022/07/01 08:42:14;;;;;;;6.63;5.38;;;;;;;;;;5107957;28;20102;-84
2022/07/01 08:44:39;;;;;;;8.82;6.25;;;;;;;;;;5127387;28;20032;-81
2022/07/01 08:47:05;;;;;;;9.90;5.43;;;;;;;;;;5110707;28;20129;-82
2022/07/01 08:49:31;;;;;;;8.23;6.63;;;;;;;;;;5110263;28;20028;-85
2022/07/01 08:51:59;;;;;;;11.70;5.93;;;;;;;;;;5127499;28;20035;-83
2022/07/01 08:54:27;;;;;;;6.93;5.53;;;;;;;;;;5125377;28;20044;-84
2022/07/01 08:56:53;;;;;;;8.27;5.40;;;;;;;;;;5126639;28;20059;-85
2022/07/01 08:59:24;;;;;;;12.27;6.78;;;;;;;;;;5110587;28;20027;-85
2022/07/01 09:02:01;;;;;;;7.05;5.53;;;;;;;;;;5110876;28;20405;-85
2022/07/01 09:04:28;;;;;;;7.40;5.78;;;;;;;;;;5111891;27;20058;-84
2022/07/01 09:07:06;;;;;;;6.10;4.85;;;;;;;;;;5131271;27;20027;-85
2022/07/01 09:09:36;;;;;;;6.13;4.80;;;;;;;;;;5134525;27;20031;-83
2022/07/01 09:12:04;;;;;;;8.85;4.15;;;;;;;;;;5129432;27;20038;-86
2022/07/01 09:14:36;;;;;;;8.10;4.00;;;;;;;;;;5116928;27;20034;-86
2022/07/01 09:17:18;;;;;;;8.90;4.70;;;;;;;;;;5134470;27;20035;-85
2022/07/01 09:19:50;;;;;;;7.00;3.40;;;;;;;;;;5136188;27;20056;-84
2022/07/01 09:22:16;;;;;;;4.80;3.60;;;;;;;;;;5138983;27;20035;-81
2022/07/01 09:24:44;;;;;;;3.78;2.90;;;;;;;;;;5139354;27;20035;-80
2022/07/01 09:27:16;;;;;;;15.88;10.95;;;;;;;;;;5141805;27;20034;-82
2022/07/01 09:29:53;;;;;;;3.85;3.30;;;;;;;;;;5140833;27;20031;-81
2022/07/01 09:32:21;;;;;;;6.35;2.72;;;;;;;;;;5123184;27;20039;-82
2022/07/01 09:34:52;;;;;;;5.13;2.60;;;;;;;;;;5140302;27;20031;-81
2022/07/01 09:37:20;;;;;;;6.22;2.03;;;;;;;;;;5138645;27;20062;-81
2022/07/01 09:39:51;;;;;;;6.18;2.30;;;;;;;;;;5139226;27;20490;-81
2022/07/01 09:42:19;;;;;;;3.92;2.50;;;;;;;;;;5125793;27;20051;-83
2022/07/01 09:44:55;;;;;;;4.07;2.42;;;;;;;;;;5127428;27;20042;-80
2022/07/01 09:47:23;;;;;;;4.65;2.33;;;;;;;;;;5141481;27;20094;-78
2022/07/01 09:49:49;;;;;;;3.15;1.98;;;;;;;;;;5149424;27;20066;-82
2022/07/01 09:52:18;;;;;;;4.47;2.08;;;;;;;;;;5151691;27;20031;-81
2022/07/01 09:54:50;;;;;;;6.80;2.03;;;;;;;;;;5133909;27;20026;-82
2022/07/01 09:57:22;;;;;;;2.10;1.85;;;;;;;;;;5134263;27;20102;-80
2022/07/01 09:59:49;;;;;;;2.85;2.00;;;;;;;;;;5133572;27;20041;-81
2022/07/01 10:02:19;;;;;;;3.70;2.50;;;;;;;;;;5149660;27;20046;-82
2022/07/01 10:05:07;;;;;;;2.97;2.05;;;;;;;;;;5138705;27;20035;-81
2022/07/01 10:08:04;;;;;;;3.42;2.42;;;;;;;;;;5170974;27;20041;-82
2022/07/01 10:10:49;;;;;;;2.42;2.08;;;;;;;;;;5153750;27;20054;-81
2022/07/01 10:13:17;;;;;;;4.80;2.20;;;;;;;;;;5153695;27;20045;-84
2022/07/01 10:15:45;;;;;;;2.78;2.15;;;;;;;;;;5153080;27;20030;-83
2022/07/01 10:18:21;;;;;;;5.53;2.47;;;;;;;;;;5148316;27;20039;-80
2022/07/01 10:20:48;;;;;;;3.58;2.17;;;;;;;;;;5142277;27;20023;-85
2022/07/01 10:23:13;;;;;;;4.25;2.30;;;;;;;;;;5141076;27;20033;-79
2022/07/01 10:25:53;;;;;;;3.75;2.22;;;;;;;;;;5160602;27;20034;-84
2022/07/01 10:28:29;;;;;;;4.00;2.15;;;;;;;;;;5140713;27;20496;-81
2022/07/01 10:31:02;;;;;;;3.72;2.10;;;;;;;;;;5138498;27;20041;-83
2022/07/01 10:33:46;;;;;;;2.20;1.90;;;;;;;;;;5157910;27;20042;-82
2022/07/01 10:36:27;;;;;;;3.35;2.20;;;;;;;;;;5122530;28;20031;-81
2022/07/01 10:39:06;;;;;;;4.75;2.70;;;;;;;;;;5136646;28;20050;-84
2022/07/01 10:41:34;;;;;;;2.53;2.22;;;;;;;;;;5123023;27;20026;-80
2022/07/01 10:44:19;;;;;;;3.53;2.22;;;;;;;;;;5116279;27;21875;-81
2022/07/01 10:46:49;;;;;;;5.68;2.78;;;;;;;;;;5120297;28;20042;-81
2022/07/01 10:49:18;;;;;;;5.20;2.90;;;;;;;;;;5138849;27;20039;-80
2022/07/01 10:51:50;;;;;;;5.03;2.53;;;;;;;;;;5120383;28;20401;-81
2022/07/01 10:54:48;;;;;;;4.95;2.58;;;;;;;;;;5116862;28;20035;-81
2022/07/01 10:57:18;;;;;;;5.85;2.47;;;;;;;;;;5117544;28;20062;-80
2022/07/01 10:59:50;;;;;;;6.80;2.40;;;;;;;;;;5116653;28;20035;-80
2022/07/01 11:02:18;;;;;;;6.55;2.63;;;;;;;;;;5099625;28;20126;-79
2022/07/01 11:04:44;;;;;;;5.22;2.95;;;;;;;;;;5116439;27;20023;-79
2022/07/01 11:07:10;;;;;;;4.18;2.80;;;;;;;;;;5115138;28;20531;-80
2022/07/01 11:09:37;;;;;;;3.63;2.70;;;;;;;;;;5116032;28;20031;-82
2022/07/01 11:12:04;;;;;;;4.75;3.03;;;;;;;;;;5116427;28;20031;-81
2022/07/01 11:14:37;;;;;;;10.68;3.05;;;;;;;;;;5098760;28;20027;-81
2022/07/01 11:17:03;;;;;;;9.65;3.00;;;;;;;;;;5116101;28;20043;-80
2022/07/01 11:19:29;;;;;;;7.38;2.90;;;;;;;;;;5099998;28;20027;-81
2022/07/01 11:21:55;;;;;;;4.47;2.40;;;;;;;;;;5116726;28;20049;-82
2022/07/01 11:24:22;;;;;;;9.07;2.75;;;;;;;;;;5098725;28;20046;-81
2022/07/01 11:26:48;;;;;;;5.13;3.17;;;;;;;;;;5118062;28;20036;-80
2022/07/01 11:29:15;;;;;;;5.00;2.65;;;;;;;;;;5121895;28;20496;-81
2022/07/01 11:31:45;;;;;;;3.17;2.40;;;;;;;;;;5120853;28;20544;-80
2022/07/01 11:34:16;;;;;;;5.95;2.90;;;;;;;;;;5104693;27;20035;-80
2022/07/01 11:39:27;;;;;;;5.55;3.00;;;;;;;;;;5162492;27;20042;-80
2022/07/01 11:41:58;;;;;;;4.70;2.38;;;;;;;;;;5143807;27;20045;-83
2022/07/01 11:44:34;;;;;;;6.47;2.75;;;;;;;;;;5102675;28;20046;-80
2022/07/01 11:47:01;;;;;;;4.88;2.50;;;;;;;;;;5103132;28;20077;-81
2022/07/01 11:49:27;;;;;;;4.25;2.50;;;;;;;;;;5103348;28;20448;-80
2022/07/01 11:52:04;;;;;;;5.95;2.70;;;;;;;;;;5124172;28;20035;-83
2022/07/01 11:54:40;;;;;;;4.63;2.80;;;;;;;;;;5103445;28;20031;-81
2022/07/01 11:57:23;;;;;;;4.38;2.67;;;;;;;;;;5103341;28;20032;-82
2022/07/01 11:59:51;;;;;;;7.07;3.13;;;;;;;;;;5106249;28;20023;-83
2022/07/01 12:02:23;;;;;;;4.00;2.42;;;;;;;;;;5104251;28;20031;-82
2022/07/01 12:04:52;;;;;;;5.30;2.95;;;;;;;;;;5117202;27;20079;-85
2022/07/01 12:07:21;;;;;;;4.15;2.53;;;;;;;;;;5142141;27;20117;-84
2022/07/01 12:09:47;;;;;;;4.88;2.60;;;;;;;;;;5162434;27;20035;-85
2022/07/01 12:12:22;;;;;;;5.20;2.78;;;;;;;;;;5144363;27;20022;-83
2022/07/01 12:14:56;;;;;;;7.20;2.97;;;;;;;;;;5161761;27;20030;-85
2022/07/01 12:17:26;;;;;;;6.20;2.47;;;;;;;;;;5140757;27;20111;-84
2022/07/01 12:19:55;;;;;;;5.43;2.50;;;;;;;;;;5139118;27;20260;-82
2022/07/01 12:22:25;;;;;;;5.38;2.70;;;;;;;;;;5160189;27;20059;-83
2022/07/01 12:25:10;;;;;;;7.45;2.40;;;;;;;;;;5144437;27;20037;-84
2022/07/01 12:27:38;;;;;;;2.92;1.95;;;;;;;;;;5139660;27;20035;-85
2022/07/01 12:30:06;;;;;;;6.53;2.63;;;;;;;;;;5140904;27;20035;-83
2022/07/01 12:32:38;;;;;;;8.82;2.33;;;;;;;;;;5129783;27;20043;-83
2022/07/01 12:38:01;;;;;;;7.03;1.90;;;;;;;;;;5137552;27;20047;-86
2022/07/01 12:40:29;;;;;;;7.93;2.00;;;;;;;;;;5138993;27;20484;-84
2022/07/01 12:42:59;;;;;;;7.63;1.60;;;;;;;;;;5138953;27;20480;-83
2022/07/01 12:45:26;;;;;;;4.72;1.60;;;;;;;;;;5137967;27;20038;-80
2022/07/01 12:47:56;;;;;;;3.53;1.60;;;;;;;;;;5121373;27;20027;-81
2022/07/01 12:50:25;;;;;;;4.00;1.90;;;;;;;;;;5125358;27;20035;-82
2022/07/01 12:53:13;;;;;;;3.72;1.60;;;;;;;;;;5125953;27;20066;-82
2022/07/01 12:55:45;;;;;;;4.15;1.60;;;;;;;;;;5125347;27;20031;-81
2022/07/01 12:58:20;;;;;;;6.85;1.92;;;;;;;;;;5125048;27;20035;-81
2022/07/01 13:00:49;;;;;;;5.63;1.67;;;;;;;;;;5124959;27;20035;-82
2022/07/01 13:03:19;;;;;;;6.20;1.42;;;;;;;;;;5125054;27;20103;-82
2022/07/01 13:05:47;;;;;;;6.03;2.08;;;;;;;;;;5138264;27;20107;-82
2022/07/01 13:08:13;;;;;;;4.20;1.63;;;;;;;;;;5162275;27;20034;-82
2022/07/01 13:10:40;;;;;;;8.48;2.15;;;;;;;;;;5146364;27;20063;-82
2022/07/01 13:13:05;;;;;;;7.55;2.90;;;;;;;;;;5146429;27;20276;-82
2022/07/01 13:15:31;;;;;;;5.75;1.65;;;;;;;;;;5163743;27;20039;-80
2022/07/01 13:17:56;;;;;;;4.72;1.70;;;;;;;;;;5142961;27;20015;-80
2022/07/01 13:20:22;;;;;;;2.47;1.25;;;;;;;;;;5157017;27;20114;-77
2022/07/01 13:22:48;;;;;;;6.25;1.40;;;;;;;;;;5137157;27;20079;-77
2022/07/01 13:25:14;;;;;;;5.28;1.50;;;;;;;;;;5137580;27;20031;-77
2022/07/01 13:27:39;;;;;;;6.72;1.55;;;;;;;;;;5137417;27;20054;-77
2022/07/01 13:30:07;;;;;;;3.85;1.40;;;;;;;;;;5154472;27;20503;-77
2022/07/01 13:32:34;;;;;;;4.57;1.65;;;;;;;;;;5154613;27;20030;-77
2022/07/01 13:35:00;;;;;;;4.97;1.48;;;;;;;;;;5147779;27;20472;-77
2022/07/01 13:37:26;;;;;;;10.00;1.55;;;;;;;;;;5133434;27;20050;-77
2022/07/01 13:39:52;;;;;;;7.63;1.30;;;;;;;;;;5133422;27;20031;-77
2022/07/01 13:42:17;;;;;;;4.57;1.35;;;;;;;;;;5133713;27;20477;-77
2022/07/01 13:44:42;;;;;;;3.75;1.42;;;;;;;;;;5133729;27;20039;-77
2022/07/01 13:47:13;;;;;;;7.15;1.63;;;;;;;;;;5134535;27;20035;-77
2022/07/01 13:49:39;;;;;;;5.10;1.63;;;;;;;;;;5134605;27;20385;-77
2022/07/01 13:52:05;;;;;;;2.35;1.20;;;;;;;;;;5134360;27;20052;-77
2022/07/01 13:54:30;;;;;;;5.45;1.20;;;;;;;;;;5132506;27;20387;-77
2022/07/01 13:56:58;;;;;;;5.65;1.55;;;;;;;;;;5133840;27;20076;-77
2022/07/01 13:59:27;;;;;;;2.65;1.23;;;;;;;;;;5117381;27;20057;-77
2022/07/01 14:01:54;;;;;;;5.88;1.13;;;;;;;;;;5135002;27;20031;-77
2022/07/01 14:04:24;;;;;;;3.83;1.13;;;;;;;;;;5117469;27;20027;-77
2022/07/01 14:06:49;;;;;;;3.35;1.30;;;;;;;;;;5135778;27;20045;-78
2022/07/01 14:09:15;;;;;;;3.65;1.20;;;;;;;;;;5155012;27;20035;-77
2022/07/01 14:11:41;;;;;;;3.47;1.30;;;;;;;;;;5155612;27;20055;-78
2022/07/01 14:14:06;;;;;;;4.13;1.10;;;;;;;;;;5137539;27;20087;-77
2022/07/01 14:16:34;;;;;;;2.15;1.10;;;;;;;;;;5154617;27;20476;-78
2022/07/01 14:18:59;;;;;;;2.13;1.08;;;;;;;;;;5154676;27;20056;-77
2022/07/01 14:21:25;;;;;;;2.40;1.13;;;;;;;;;;5137166;27;20022;-77
2022/07/01 14:23:53;;;;;;;4.28;1.42;;;;;;;;;;5154730;27;20488;-77
2022/07/01 14:26:18;;;;;;;5.03;1.00;;;;;;;;;;5138906;27;20036;-78
2022/07/01 14:28:45;;;;;;;2.53;1.38;;;;;;;;;;5157439;27;20037;-78
2022/07/01 14:31:14;;;;;;;3.75;2.03;;;;;;;;;;5154431;27;20031;-78
2022/07/01 14:33:39;;;;;;;4.65;1.38;;;;;;;;;;5139913;27;20098;-79
2022/07/01 14:36:07;;;;;;;5.43;1.55;;;;;;;;;;5141463;27;20074;-81
2022/07/01 14:38:32;;;;;;;8.35;1.40;;;;;;;;;;5138145;28;20047;-81
2022/07/01 14:40:58;;;;;;;6.30;1.55;;;;;;;;;;5137883;27;20552;-82
2022/07/01 14:43:24;;;;;;;5.38;1.35;;;;;;;;;;5112645;28;20034;-82
2022/07/01 14:45:52;;;;;;;4.65;1.35;;;;;;;;;;5106623;28;20469;-82
2022/07/01 14:48:18;;;;;;;8.60;1.80;;;;;;;;;;5120251;28;20078;-82
2022/07/01 14:50:43;;;;;;;4.60;1.50;;;;;;;;;;5106097;28;20077;-82
2022/07/01 14:53:10;;;;;;;3.70;1.40;;;;;;;;;;5139918;28;20032;-82
2022/07/01 14:55:36;;;;;;;2.65;1.25;;;;;;;;;;5124478;28;20051;-83